sensor_id;sensor_type;location;lat;lon;timestamp;pressure;altitude;pressure_sealevel;temperature;humidity
4528;BME280;62320;51.520;6.818;2022-12-04T00:04:08;101317.09;;;1.41;91.25
4528;BME280;62320;51.520;6.818;2022-12-04T00:14:10;101307.84;;;1.43;91.49
4528;BME280;62320;51.520;6.818;2022-12-04T00:24:11;101309.34;;;1.38;91.90
4528;BME280;62320;51.520;6.818;2022-12-04T00:34:12;101299.25;;;1.41;91.81
4528;BME280;62320;51.520;6.818;2022-12-04T00:44:14;101295.72;;;1.38;91.78
4528;BME280;62320;51.520;6.818;2022-12-04T00:54:15;101291.50;;;1.38;91.86
4528;BME280;62320;51.520;6.818;2022-12-04T01:04:17;101292.50;;;1.42;92.11
4528;BME280;62320;51.520;6.818;2022-12-04T01:14:18;101290.69;;;1.39;91.93
4528;BME280;62320;51.520;6.818;2022-12-04T01:24:20;101293.22;;;1.39;91.72
4528;BME280;62320;51.520;6.818;2022-12-04T01:34:21;101299.34;;;1.43;92.24
4528;BME280;62320;51.520;6.818;2022-12-04T01:44:25;101306.91;;;1.41;92.17
4528;BME280;62320;51.520;6.818;2022-12-04T01:54:30;101297.66;;;1.43;91.78
4528;BME280;62320;51.520;6.818;2022-12-04T02:04:33;101304.50;;;1.44;91.72
4528;BME280;62320;51.520;6.818;2022-12-04T02:24:52;101276.47;;;1.44;92.21
4528;BME280;62320;51.520;6.818;2022-12-04T02:35:54;101268.09;;;1.47;92.42
4528;BME280;62320;51.520;6.818;2022-12-04T02:56:10;101262.06;;;1.45;92.61
4528;BME280;62320;51.520;6.818;2022-12-04T03:17:38;101266.28;;;1.44;92.32
4528;BME280;62320;51.520;6.818;2022-12-04T03:27:52;101267.91;;;1.42;92.67
4528;BME280;62320;51.520;6.818;2022-12-04T03:38:01;101278.88;;;1.41;92.62
4528;BME280;62320;51.520;6.818;2022-12-04T03:48:08;101274.66;;;1.42;93.14
4528;BME280;62320;51.520;6.818;2022-12-04T03:58:22;101265.47;;;1.45;92.77
4528;BME280;62320;51.520;6.818;2022-12-04T04:08:30;101258.50;;;1.41;92.95
4528;BME280;62320;51.520;6.818;2022-12-04T04:18:35;101265.34;;;1.42;92.95
4528;BME280;62320;51.520;6.818;2022-12-04T04:28:55;101272.69;;;1.36;93.24
4528;BME280;62320;51.520;6.818;2022-12-04T04:39:02;101274.50;;;1.39;93.14
4528;BME280;62320;51.520;6.818;2022-12-04T04:49:11;101274.41;;;1.36;93.64
4528;BME280;62320;51.520;6.818;2022-12-04T04:59:14;101283.91;;;1.40;92.89
4528;BME280;62320;51.520;6.818;2022-12-04T05:09:16;101273.56;;;1.37;93.03
4528;BME280;62320;51.520;6.818;2022-12-04T05:19:17;101279.59;;;1.39;92.93
4528;BME280;62320;51.520;6.818;2022-12-04T05:29:37;101267.59;;;1.36;93.25
4528;BME280;62320;51.520;6.818;2022-12-04T05:39:38;101266.28;;;1.44;93.10
4528;BME280;62320;51.520;6.818;2022-12-04T05:49:40;101258.63;;;1.44;93.18
4528;BME280;62320;51.520;6.818;2022-12-04T05:59:41;101253.53;;;1.44;93.18
4528;BME280;62320;51.520;6.818;2022-12-04T06:09:43;101244.97;;;1.42;93.18
4528;BME280;62320;51.520;6.818;2022-12-04T06:19:44;101260.38;;;1.45;93.04
4528;BME280;62320;51.520;6.818;2022-12-04T06:29:46;101261.34;;;1.48;93.01
4528;BME280;62320;51.520;6.818;2022-12-04T06:39:47;101266.34;;;1.46;93.01
4528;BME280;62320;51.520;6.818;2022-12-04T06:49:49;101274.72;;;1.43;93.00
4528;BME280;62320;51.520;6.818;2022-12-04T06:59:51;101269.91;;;1.50;92.28
4528;BME280;62320;51.520;6.818;2022-12-04T07:09:52;101270.66;;;1.47;92.27
4528;BME280;62320;51.520;6.818;2022-12-04T07:19:54;101274.13;;;1.49;92.49
4528;BME280;62320;51.520;6.818;2022-12-04T07:29:56;101280.09;;;1.50;92.52
4528;BME280;62320;51.520;6.818;2022-12-04T07:39:58;101290.34;;;1.51;92.95
4528;BME280;62320;51.520;6.818;2022-12-04T07:49:59;101291.09;;;1.49;92.57
4528;BME280;62320;51.520;6.818;2022-12-04T08:00:00;101305.59;;;1.50;93.21
4528;BME280;62320;51.520;6.818;2022-12-04T08:10:02;101307.31;;;1.51;92.63
4528;BME280;62320;51.520;6.818;2022-12-04T08:20:04;101305.06;;;1.57;92.86
4528;BME280;62320;51.520;6.818;2022-12-04T08:30:07;101317.84;;;1.58;92.63
4528;BME280;62320;51.520;6.818;2022-12-04T08:40:09;101305.06;;;1.57;92.73
4528;BME280;62320;51.520;6.818;2022-12-04T08:50:11;101295.19;;;1.64;92.62
4528;BME280;62320;51.520;6.818;2022-12-04T09:00:13;101296.22;;;1.68;92.98
4528;BME280;62320;51.520;6.818;2022-12-04T09:10:15;101304.84;;;1.71;92.67
4528;BME280;62320;51.520;6.818;2022-12-04T09:20:17;101307.44;;;1.73;92.50
4528;BME280;62320;51.520;6.818;2022-12-04T09:30:18;101301.63;;;1.75;93.13
4528;BME280;62320;51.520;6.818;2022-12-04T09:40:25;101297.44;;;1.77;93.10
4528;BME280;62320;51.520;6.818;2022-12-04T09:50:40;101309.41;;;1.78;92.89
4528;BME280;62320;51.520;6.818;2022-12-04T10:00:45;101300.50;;;1.88;93.07
4528;BME280;62320;51.520;6.818;2022-12-04T10:31:16;101296.53;;;1.94;93.20
4528;BME280;62320;51.520;6.818;2022-12-04T10:41:24;101290.00;;;2.01;92.77
4528;BME280;62320;51.520;6.818;2022-12-04T10:51:34;101288.25;;;2.00;93.15
4528;BME280;62320;51.520;6.818;2022-12-04T11:01:38;101273.28;;;2.07;93.19
4528;BME280;62320;51.520;6.818;2022-12-04T11:11:40;101259.03;;;2.12;93.32
4528;BME280;62320;51.520;6.818;2022-12-04T11:21:43;101259.97;;;2.14;93.00
4528;BME280;62320;51.520;6.818;2022-12-04T11:31:52;101244.25;;;2.25;92.93
4528;BME280;62320;51.520;6.818;2022-12-04T11:42:15;101218.78;;;2.26;93.23
4528;BME280;62320;51.520;6.818;2022-12-04T12:13:15;101214.06;;;2.35;93.65
4528;BME280;62320;51.520;6.818;2022-12-04T12:34:13;101207.63;;;2.45;94.01
4528;BME280;62320;51.520;6.818;2022-12-04T12:44:32;101201.84;;;2.49;94.08
4528;BME280;62320;51.520;6.818;2022-12-04T12:54:43;101198.59;;;2.53;94.08
4528;BME280;62320;51.520;6.818;2022-12-04T13:04:48;101177.53;;;2.58;94.00
4528;BME280;62320;51.520;6.818;2022-12-04T13:14:52;101181.03;;;2.60;93.72
4528;BME280;62320;51.520;6.818;2022-12-04T13:25:27;101186.31;;;2.65;94.14
4528;BME280;62320;51.520;6.818;2022-12-04T13:36:12;101176.22;;;2.68;93.92
4528;BME280;62320;51.520;6.818;2022-12-04T13:46:28;101180.63;;;2.72;93.74
4528;BME280;62320;51.520;6.818;2022-12-04T13:56:31;101176.41;;;2.72;93.63
4528;BME280;62320;51.520;6.818;2022-12-04T14:06:36;101181.56;;;2.74;93.83
4528;BME280;62320;51.520;6.818;2022-12-04T14:16:40;101168.81;;;2.75;93.68
4528;BME280;62320;51.520;6.818;2022-12-04T14:26:49;101161.00;;;2.71;93.67
4528;BME280;62320;51.520;6.818;2022-12-04T14:37:28;101171.47;;;2.77;93.39
4528;BME280;62320;51.520;6.818;2022-12-04T14:47:40;101168.91;;;2.77;93.83
4528;BME280;62320;51.520;6.818;2022-12-04T14:58:00;101159.50;;;2.76;94.16
4528;BME280;62320;51.520;6.818;2022-12-04T15:08:21;101168.06;;;2.78;94.03
4528;BME280;62320;51.520;6.818;2022-12-04T15:18:23;101170.63;;;2.78;93.76
4528;BME280;62320;51.520;6.818;2022-12-04T15:28:28;101170.63;;;2.78;93.49
4528;BME280;62320;51.520;6.818;2022-12-04T15:38:31;101174.28;;;2.84;94.01
4528;BME280;62320;51.520;6.818;2022-12-04T15:48:33;101169.16;;;2.84;93.91
4528;BME280;62320;51.520;6.818;2022-12-04T15:58:38;101182.88;;;2.86;93.98
4528;BME280;62320;51.520;6.818;2022-12-04T16:08:42;101181.13;;;2.85;93.82
4528;BME280;62320;51.520;6.818;2022-12-04T16:18:44;101193.78;;;2.82;93.81
4528;BME280;62320;51.520;6.818;2022-12-04T16:28:46;101198.13;;;2.85;93.81
4528;BME280;62320;51.520;6.818;2022-12-04T16:38:47;101198.25;;;2.88;93.77
4528;BME280;62320;51.520;6.818;2022-12-04T16:48:49;101197.25;;;2.84;94.41
4528;BME280;62320;51.520;6.818;2022-12-04T16:58:50;101203.28;;;2.86;94.22
4528;BME280;62320;51.520;6.818;2022-12-04T17:08:51;101195.59;;;2.85;93.92
4528;BME280;62320;51.520;6.818;2022-12-04T17:18:53;101214.34;;;2.85;94.05
4528;BME280;62320;51.520;6.818;2022-12-04T17:28:54;101228.91;;;2.88;94.23
4528;BME280;62320;51.520;6.818;2022-12-04T17:38:57;101227.34;;;2.92;94.31
4528;BME280;62320;51.520;6.818;2022-12-04T17:48:59;101234.94;;;2.90;94.74
4528;BME280;62320;51.520;6.818;2022-12-04T17:59:07;101239.78;;;2.84;95.03
4528;BME280;62320;51.520;6.818;2022-12-04T18:09:12;101219.28;;;2.81;95.12
4528;BME280;62320;51.520;6.818;2022-12-04T18:19:14;101224.38;;;2.81;95.43
4528;BME280;62320;51.520;6.818;2022-12-04T18:29:19;101219.38;;;2.84;95.47
4528;BME280;62320;51.520;6.818;2022-12-04T18:39:23;101211.69;;;2.84;95.09
4528;BME280;62320;51.520;6.818;2022-12-04T18:49:25;101205.31;;;2.73;96.09
4528;BME280;62320;51.520;6.818;2022-12-04T18:59:26;101212.50;;;2.81;95.64
4528;BME280;62320;51.520;6.818;2022-12-04T19:09:29;101224.19;;;2.76;96.20
4528;BME280;62320;51.520;6.818;2022-12-04T19:19:50;101221.56;;;2.75;96.27
4528;BME280;62320;51.520;6.818;2022-12-04T19:29:52;101213.91;;;2.75;96.48
4528;BME280;62320;51.520;6.818;2022-12-04T19:39:54;101222.69;;;2.81;96.52
4528;BME280;62320;51.520;6.818;2022-12-04T19:49:56;101231.13;;;2.79;96.56
4528;BME280;62320;51.520;6.818;2022-12-04T19:59:58;101228.44;;;2.76;96.82
4528;BME280;62320;51.520;6.818;2022-12-04T20:10:00;101229.22;;;2.75;96.98
4528;BME280;62320;51.520;6.818;2022-12-04T20:20:02;101237.03;;;2.78;96.27
4528;BME280;62320;51.520;6.818;2022-12-04T20:30:04;101242.13;;;2.78;96.86
4528;BME280;62320;51.520;6.818;2022-12-04T20:40:06;101236.97;;;2.76;96.98
4528;BME280;62320;51.520;6.818;2022-12-04T20:50:08;101229.50;;;2.81;96.28
4528;BME280;62320;51.520;6.818;2022-12-04T21:00:10;101227.72;;;2.80;96.82
4528;BME280;62320;51.520;6.818;2022-12-04T21:10:13;101220.91;;;2.79;97.13
4528;BME280;62320;51.520;6.818;2022-12-04T21:20:15;101218.25;;;2.77;97.23
4528;BME280;62320;51.520;6.818;2022-12-04T21:30:17;101209.81;;;2.78;96.96
4528;BME280;62320;51.520;6.818;2022-12-04T21:40:18;101203.81;;;2.78;96.91
4528;BME280;62320;51.520;6.818;2022-12-04T21:50:19;101204.84;;;2.81;97.23
4528;BME280;62320;51.520;6.818;2022-12-04T22:00:21;101205.75;;;2.83;97.14
4528;BME280;62320;51.520;6.818;2022-12-04T22:10:22;101221.00;;;2.82;97.40
4528;BME280;62320;51.520;6.818;2022-12-04T22:20:24;101223.63;;;2.83;96.98
4528;BME280;62320;51.520;6.818;2022-12-04T22:30:26;101231.16;;;2.80;98.03
4528;BME280;62320;51.520;6.818;2022-12-04T22:40:27;101242.47;;;2.87;97.24
4528;BME280;62320;51.520;6.818;2022-12-04T22:50:28;101232.13;;;2.84;97.82
4528;BME280;62320;51.520;6.818;2022-12-04T23:00:30;101244.91;;;2.84;97.40
4528;BME280;62320;51.520;6.818;2022-12-04T23:10:35;101244.84;;;2.82;98.04
4528;BME280;62320;51.520;6.818;2022-12-04T23:20:37;101245.88;;;2.86;97.89
4528;BME280;62320;51.520;6.818;2022-12-04T23:30:43;101251.03;;;2.87;97.46
4528;BME280;62320;51.520;6.818;2022-12-04T23:40:45;101233.09;;;2.86;97.74
4528;BME280;62320;51.520;6.818;2022-12-04T23:50:46;101237.31;;;2.85;97.79
